createdAt,value
2023-12-24T00:00:31.608Z,1.64
2023-12-24T00:05:58.359Z,1.50
2023-12-24T00:11:02.302Z,1.43
2023-12-24T00:16:07.613Z,1.33
2023-12-24T00:21:14.202Z,1.22
2023-12-24T00:26:17.750Z,1.27
2023-12-24T00:31:23.980Z,1.28
2023-12-24T00:36:27.860Z,1.08
2023-12-24T00:41:32.441Z,1.12
2023-12-24T00:46:37.593Z,0.95
2023-12-24T00:51:44.128Z,0.89
2023-12-24T00:56:47.592Z,0.65
2023-12-24T01:01:52.485Z,0.67
2023-12-24T01:06:55.962Z,0.49
2023-12-24T01:11:59.420Z,0.60
2023-12-24T01:17:04.700Z,0.58
2023-12-24T01:22:08.234Z,0.34
2023-12-24T01:27:11.828Z,0.37
2023-12-24T01:32:16.887Z,0.53
2023-12-24T01:37:20.426Z,0.53
2023-12-24T01:42:23.909Z,0.32
2023-12-24T01:47:29.426Z,0.32
2023-12-24T01:52:33.200Z,0.31
2023-12-24T01:57:37.380Z,0.30
2023-12-24T02:02:42.371Z,0.35
2023-12-24T02:07:49.368Z,0.29
2023-12-24T02:12:53.160Z,0.27
2023-12-24T02:18:00.510Z,0.38
2023-12-24T02:23:05.785Z,0.19
2023-12-24T02:28:17.130Z,0.23
2023-12-24T02:33:22.711Z,0.17
2023-12-24T02:38:27.896Z,0.17
2023-12-24T02:43:31.400Z,0.18
2023-12-24T02:48:34.896Z,0.13
2023-12-24T02:53:40.024Z,0.09
2023-12-24T02:58:44.958Z,0.03
2023-12-24T03:03:48.526Z,-0.12
2023-12-24T03:08:53.437Z,-0.03
2023-12-24T03:13:56.960Z,-0.17
2023-12-24T03:19:00.733Z,-0.12
2023-12-24T03:24:07.692Z,-0.13
2023-12-24T03:29:14.524Z,-0.09
2023-12-24T03:34:19.378Z,-0.15
2023-12-24T03:39:24.342Z,-0.21
2023-12-24T03:44:27.843Z,-0.03
2023-12-24T03:49:31.368Z,-0.18
2023-12-24T03:54:36.329Z,-0.18
2023-12-24T03:59:40.677Z,-0.11
2023-12-24T04:04:47.083Z,-0.17
2023-12-24T04:09:51.963Z,-0.08
2023-12-24T04:14:55.138Z,-0.04
2023-12-24T04:19:58.647Z,-0.14
2023-12-24T04:25:03.745Z,-0.10
2023-12-24T04:30:08.548Z,-0.13
2023-12-24T04:35:12.576Z,-0.03
2023-12-24T04:40:17.504Z,-0.10
2023-12-24T04:45:20.949Z,-0.07
2023-12-24T04:50:24.461Z,0.05
2023-12-24T04:55:29.575Z,-0.06
2023-12-24T05:00:33.265Z,-0.05
2023-12-24T05:05:36.909Z,-0.02
2023-12-24T05:10:42.541Z,-0.02
2023-12-24T05:15:46.011Z,-0.03
2023-12-24T05:20:49.487Z,-0.06
2023-12-24T05:25:54.637Z,0.05
2023-12-24T05:30:58.127Z,-0.05
2023-12-24T05:36:01.744Z,0.03
2023-12-24T05:41:10.378Z,0.13
2023-12-24T05:46:14.903Z,0.18
2023-12-24T05:51:18.825Z,0.10
2023-12-24T05:56:23.720Z,0.07
2023-12-24T06:01:27.399Z,0.18
2023-12-24T06:06:31.075Z,0.30
2023-12-24T06:11:36.042Z,0.29
2023-12-24T06:16:39.514Z,0.28
2023-12-24T06:21:43.013Z,0.31
2023-12-24T06:26:47.880Z,0.24
2023-12-24T06:31:51.367Z,0.23
2023-12-24T06:36:54.953Z,0.31
2023-12-24T06:41:59.865Z,0.47
2023-12-24T06:47:03.514Z,0.22
2023-12-24T06:52:07.581Z,0.31
2023-12-24T06:57:12.517Z,0.35
2023-12-24T07:02:15.986Z,0.37
2023-12-24T07:07:19.618Z,0.51
2023-12-24T07:12:24.655Z,0.52
2023-12-24T07:17:28.366Z,0.55
2023-12-24T07:22:32.012Z,0.35
2023-12-24T07:27:36.900Z,0.58
2023-12-24T07:32:45.137Z,0.59
2023-12-24T07:37:49.462Z,0.61
2023-12-24T07:42:54.575Z,0.67
2023-12-24T07:47:58.361Z,0.75
2023-12-24T07:53:01.912Z,0.72
2023-12-24T07:58:06.820Z,0.94
2023-12-24T08:03:10.401Z,0.89
2023-12-24T08:08:14.364Z,1.00
2023-12-24T08:13:19.943Z,1.27
2023-12-24T08:18:23.907Z,1.21
2023-12-24T08:23:27.650Z,1.52
2023-12-24T08:28:32.541Z,1.67
2023-12-24T08:33:36.083Z,1.59
2023-12-24T08:38:39.766Z,1.73
2023-12-24T08:43:44.666Z,1.85
2023-12-24T08:48:48.321Z,2.00
2023-12-24T08:53:51.866Z,2.11
2023-12-24T08:58:56.854Z,2.15
2023-12-24T09:04:00.495Z,2.41
2023-12-24T09:09:04.076Z,2.52
2023-12-24T09:14:09.404Z,2.56
2023-12-24T09:19:12.941Z,2.80
2023-12-24T09:24:16.497Z,2.91
2023-12-24T09:29:23.479Z,3.18
2023-12-24T09:34:27.051Z,3.41
2023-12-24T09:39:30.578Z,3.64
2023-12-24T09:44:36.372Z,3.89
2023-12-24T09:49:39.817Z,4.26
2023-12-24T09:54:44.474Z,4.61
2023-12-24T09:59:49.403Z,4.61
2023-12-24T10:04:53.017Z,5.26
2023-12-24T10:09:56.555Z,5.55
2023-12-24T10:15:01.832Z,5.78
2023-12-24T10:20:07.420Z,5.99
2023-12-24T10:25:11.411Z,6.15
2023-12-24T10:30:17.496Z,6.27
2023-12-24T10:35:23.888Z,6.39
2023-12-24T10:40:27.496Z,6.53
2023-12-24T10:45:32.332Z,6.63
2023-12-24T10:50:35.838Z,6.78
2023-12-24T10:55:41.966Z,6.91
2023-12-24T11:00:47.425Z,7.03
2023-12-24T11:05:51.748Z,7.11
2023-12-24T11:10:56.014Z,7.23
2023-12-24T11:16:01.754Z,7.35
2023-12-24T11:21:05.677Z,7.49
2023-12-24T11:26:30.364Z,7.57
2023-12-24T11:31:35.447Z,7.50
2023-12-24T11:37:05.421Z,7.64
2023-12-24T11:42:09.057Z,7.67
2023-12-24T11:47:20.846Z,7.70
2023-12-24T11:52:25.182Z,7.90
2023-12-24T11:57:28.791Z,7.91
2023-12-24T12:02:33.612Z,8.08
2023-12-24T12:07:37.313Z,8.09
2023-12-24T12:12:41.044Z,8.08
2023-12-24T12:17:46.112Z,8.10
2023-12-24T12:22:51.730Z,7.99
2023-12-24T12:27:55.482Z,8.03
2023-12-24T12:33:00.515Z,7.97
2023-12-24T12:38:04.351Z,8.08
2023-12-24T12:43:09.813Z,8.05
2023-12-24T12:48:14.860Z,8.06
2023-12-24T12:53:25.270Z,8.08
2023-12-24T12:58:28.822Z,8.00
2023-12-24T13:03:36.893Z,7.98
2023-12-24T13:08:40.824Z,7.93
2023-12-24T13:13:44.361Z,7.97
2023-12-24T13:18:49.341Z,7.99
2023-12-24T13:23:52.988Z,7.95
2023-12-24T13:28:59.826Z,8.07
2023-12-24T13:34:04.872Z,7.97
2023-12-24T13:39:08.584Z,8.00
2023-12-24T13:44:12.774Z,8.04
2023-12-24T13:49:18.108Z,8.03
2023-12-24T13:54:25.197Z,8.01
2023-12-24T13:59:29.040Z,8.05
2023-12-24T14:04:34.133Z,8.08
2023-12-24T14:09:38.493Z,8.04
2023-12-24T14:14:42.180Z,8.04
2023-12-24T14:19:48.980Z,8.03
2023-12-24T14:24:52.569Z,8.03
2023-12-24T14:29:57.195Z,8.04
2023-12-24T14:35:02.503Z,8.01
2023-12-24T14:40:08.035Z,8.09
2023-12-24T14:45:11.981Z,8.05
2023-12-24T14:50:17.055Z,8.15
2023-12-24T14:55:20.620Z,8.07
2023-12-24T15:00:25.462Z,8.10
2023-12-24T15:05:30.974Z,8.14
2023-12-24T15:10:34.871Z,8.09
2023-12-24T15:15:38.608Z,8.13
2023-12-24T15:20:43.706Z,8.11
2023-12-24T15:25:47.826Z,7.99
2023-12-24T15:30:51.833Z,8.03
2023-12-24T15:35:56.917Z,7.98
2023-12-24T15:41:01.071Z,8.07
2023-12-24T15:46:04.874Z,8.11
2023-12-24T15:51:09.836Z,8.06
2023-12-24T15:56:20.652Z,8.12
2023-12-24T16:01:25.610Z,8.10
2023-12-24T16:06:33.582Z,8.12
2023-12-24T16:11:42.530Z,8.10
2023-12-24T16:16:47.400Z,8.10
2023-12-24T16:21:52.349Z,8.23
2023-12-24T16:26:56.160Z,8.21
2023-12-24T16:31:59.724Z,8.23
2023-12-24T16:37:05.213Z,8.33
2023-12-24T16:42:09.122Z,8.35
2023-12-24T16:47:12.754Z,8.29
2023-12-24T16:52:17.598Z,8.34
2023-12-24T16:57:22.190Z,8.43
2023-12-24T17:02:27.217Z,8.40
2023-12-24T17:07:32.076Z,8.48
2023-12-24T17:12:36.711Z,8.39
2023-12-24T17:17:40.634Z,8.38
2023-12-24T17:22:45.687Z,8.51
2023-12-24T17:27:49.839Z,8.46
2023-12-24T17:32:53.711Z,8.45
2023-12-24T17:37:58.752Z,8.44
2023-12-24T17:43:03.056Z,8.51
2023-12-24T17:48:13.906Z,8.54
2023-12-24T17:53:25.070Z,8.56
2023-12-24T17:58:28.644Z,8.53
2023-12-24T18:03:32.133Z,8.56
2023-12-24T18:08:37.181Z,8.50
2023-12-24T18:13:40.781Z,8.52
2023-12-24T18:18:44.572Z,8.56
2023-12-24T18:23:49.667Z,8.54
2023-12-24T18:28:53.547Z,8.63
2023-12-24T18:33:57.330Z,8.59
2023-12-24T18:39:02.667Z,8.62
2023-12-24T18:44:06.546Z,8.67
2023-12-24T18:49:10.178Z,8.66
2023-12-24T18:54:15.330Z,8.74
2023-12-24T18:59:18.816Z,8.70
2023-12-24T19:04:22.443Z,8.77
2023-12-24T19:09:27.768Z,8.81
2023-12-24T19:14:31.425Z,8.89
2023-12-24T19:19:35.267Z,8.96
2023-12-24T19:24:40.331Z,8.99
2023-12-24T19:29:44.136Z,9.04
2023-12-24T19:34:47.782Z,9.09
2023-12-24T19:39:52.691Z,9.11
2023-12-24T19:44:56.320Z,9.10
2023-12-24T19:49:59.893Z,9.21
2023-12-24T19:55:05.180Z,9.27
2023-12-24T20:00:10.755Z,9.30
2023-12-24T20:05:14.872Z,9.25
2023-12-24T20:10:20.193Z,9.35
2023-12-24T20:15:24.236Z,9.39
2023-12-24T20:20:28.475Z,9.40
2023-12-24T20:25:33.576Z,9.40
2023-12-24T20:30:37.577Z,9.33
2023-12-24T20:35:41.187Z,9.47
2023-12-24T20:40:46.186Z,9.46
2023-12-24T20:45:49.652Z,9.56
2023-12-24T20:50:53.580Z,9.58
2023-12-24T20:55:59.055Z,9.60
2023-12-24T21:01:03.093Z,9.61
2023-12-24T21:06:07.527Z,9.61
2023-12-24T21:11:13.002Z,9.71
2023-12-24T21:16:16.983Z,9.65
2023-12-24T21:21:20.945Z,9.65
2023-12-24T21:26:26.483Z,9.65
2023-12-24T21:31:30.157Z,9.58
2023-12-24T21:36:33.892Z,9.57
2023-12-24T21:41:42.719Z,9.52
2023-12-24T21:46:46.560Z,9.50
2023-12-24T21:51:50.321Z,9.46
2023-12-24T21:56:55.326Z,9.42
2023-12-24T22:01:59.157Z,9.38
2023-12-24T22:07:02.855Z,9.41
2023-12-24T22:12:09.354Z,9.41
2023-12-24T22:17:15.061Z,9.45
2023-12-24T22:22:18.781Z,9.44
2023-12-24T22:27:23.785Z,9.46
2023-12-24T22:32:27.645Z,9.41
2023-12-24T22:37:31.171Z,9.27
2023-12-24T22:42:36.015Z,9.14
2023-12-24T22:47:39.565Z,8.96
2023-12-24T22:52:43.215Z,8.79
2023-12-24T22:57:48.044Z,8.70
2023-12-24T23:02:51.570Z,8.64
2023-12-24T23:07:55.507Z,8.57
2023-12-24T23:13:00.772Z,8.54
2023-12-24T23:18:05.311Z,8.57
2023-12-24T23:23:08.803Z,8.58
2023-12-24T23:28:13.769Z,8.69
2023-12-24T23:33:17.396Z,8.70
2023-12-24T23:38:20.919Z,8.82
2023-12-24T23:43:25.762Z,8.74
2023-12-24T23:48:29.358Z,8.73
2023-12-24T23:53:33.263Z,8.72
2023-12-24T23:58:38.130Z,8.72
